createdAt,value
2018-03-26T00:00:51.661Z,49.63
2018-03-26T00:03:18.289Z,50.88
2018-03-26T00:05:45.049Z,41.50
2018-03-26T00:08:11.680Z,39.25
2018-03-26T00:10:38.429Z,39.15
2018-03-26T00:13:05.161Z,33.40
2018-03-26T00:15:31.803Z,36.42
2018-03-26T00:17:58.549Z,33.22
2018-03-26T00:20:25.284Z,38.35
2018-03-26T00:22:51.925Z,41.13
2018-03-26T00:25:18.569Z,34.85
2018-03-26T00:27:45.191Z,41.45
2018-03-26T00:30:11.832Z,34.85
2018-03-26T00:32:38.466Z,36.15
2018-03-26T00:35:05.106Z,39.63
2018-03-26T00:37:31.773Z,43.83
2018-03-26T00:39:58.400Z,38.05
2018-03-26T00:42:25.040Z,43.65
2018-03-26T00:44:51.672Z,42.00
2018-03-26T00:47:18.315Z,45.53
2018-03-26T00:49:44.955Z,43.33
2018-03-26T00:52:11.652Z,44.65
2018-03-26T00:54:38.338Z,45.12
2018-03-26T00:57:05.082Z,45.90
2018-03-26T00:59:31.708Z,45.42
2018-03-26T01:01:58.354Z,37.80
2018-03-26T01:04:25.115Z,38.92
2018-03-26T01:06:51.840Z,41.85
2018-03-26T01:09:18.473Z,42.85
2018-03-26T01:11:45.223Z,42.88
2018-03-26T01:14:11.968Z,40.75
2018-03-26T01:16:38.614Z,60.58
2018-03-26T01:19:05.250Z,47.10
2018-03-26T01:21:31.904Z,36.50
2018-03-26T01:23:58.534Z,43.35
2018-03-26T01:26:25.180Z,35.88
2018-03-26T01:28:51.813Z,41.17
2018-03-26T01:31:18.536Z,40.95
2018-03-26T01:33:45.176Z,40.80
2018-03-26T01:36:11.911Z,35.20
2018-03-26T01:38:38.652Z,38.95
2018-03-26T01:41:05.280Z,43.60
2018-03-26T01:43:31.919Z,46.28
2018-03-26T01:45:58.548Z,42.00
2018-03-26T01:48:25.217Z,34.35
2018-03-26T01:50:51.881Z,44.80
2018-03-26T01:53:18.520Z,38.30
2018-03-26T01:55:45.144Z,36.42
2018-03-26T01:58:11.785Z,44.67
2018-03-26T02:00:38.413Z,37.72
2018-03-26T02:03:05.075Z,38.85
2018-03-26T02:05:31.794Z,45.65
2018-03-26T02:07:58.441Z,41.78
2018-03-26T02:10:25.063Z,39.88
2018-03-26T02:12:51.718Z,39.47
2018-03-26T02:17:49.325Z,42.10
2018-03-26T02:20:15.972Z,44.78
2018-03-26T02:22:42.694Z,42.50
2018-03-26T02:25:09.408Z,36.83
2018-03-26T02:27:36.035Z,38.05
2018-03-26T02:30:02.816Z,40.08
2018-03-26T02:32:29.542Z,40.00
2018-03-26T02:34:57.093Z,41.45
2018-03-26T02:37:23.729Z,36.08
2018-03-26T02:39:50.471Z,44.00
2018-03-26T02:42:17.225Z,35.05
2018-03-26T02:44:43.869Z,43.95
2018-03-26T02:47:10.507Z,37.67
2018-03-26T02:49:37.241Z,36.40
2018-03-26T02:52:03.885Z,38.20
2018-03-26T02:54:30.616Z,33.95
2018-03-26T02:56:57.357Z,46.85
2018-03-26T02:59:24.001Z,42.50
2018-03-26T03:01:50.643Z,40.05
2018-03-26T03:04:17.287Z,40.40
2018-03-26T03:06:43.916Z,44.78
2018-03-26T03:09:10.552Z,39.55
2018-03-26T03:11:37.183Z,36.38
2018-03-26T03:14:03.805Z,36.40
2018-03-26T03:16:30.470Z,36.75
2018-03-26T03:18:57.095Z,38.33
2018-03-26T03:21:23.849Z,43.65
2018-03-26T03:23:50.599Z,33.42
2018-03-26T03:26:17.332Z,44.72
2018-03-26T03:28:43.962Z,37.70
2018-03-26T03:31:10.600Z,36.47
2018-03-26T03:33:37.254Z,40.95
2018-03-26T03:36:04.015Z,44.17
2018-03-26T03:38:30.734Z,43.95
2018-03-26T03:40:57.381Z,35.33
2018-03-26T03:43:24.013Z,37.40
2018-03-26T03:45:50.753Z,36.30
2018-03-26T03:48:17.416Z,43.80
2018-03-26T03:50:44.061Z,39.70
2018-03-26T03:53:10.689Z,40.63
2018-03-26T03:55:37.343Z,36.30
2018-03-26T03:58:04.057Z,47.55
2018-03-26T04:00:30.688Z,44.25
2018-03-26T04:02:57.320Z,41.17
2018-03-26T04:05:23.974Z,44.00
2018-03-26T04:07:50.616Z,39.35
2018-03-26T04:10:17.249Z,45.12
2018-03-26T04:12:43.987Z,41.80
2018-03-26T04:15:10.612Z,37.47
2018-03-26T04:17:37.257Z,41.75
2018-03-26T04:20:03.886Z,39.83
2018-03-26T04:22:30.528Z,37.72
2018-03-26T04:24:57.207Z,37.95
2018-03-26T04:27:23.849Z,36.60
2018-03-26T04:29:50.472Z,37.67
2018-03-26T04:32:17.123Z,37.67
2018-03-26T04:34:43.747Z,35.72
2018-03-26T04:37:10.391Z,40.60
2018-03-26T04:39:37.035Z,39.47
2018-03-26T04:42:03.759Z,38.17
2018-03-26T04:44:30.399Z,41.60
2018-03-26T04:46:57.033Z,39.47
2018-03-26T04:49:23.673Z,42.75
2018-03-26T04:51:50.293Z,42.13
2018-03-26T04:54:16.928Z,39.25
2018-03-26T04:56:43.598Z,39.65
2018-03-26T04:59:10.323Z,40.97
2018-03-26T05:01:36.957Z,41.45
2018-03-26T05:04:03.718Z,39.70
2018-03-26T05:06:30.343Z,40.47
2018-03-26T05:08:56.985Z,45.60
2018-03-26T05:11:23.616Z,41.50
2018-03-26T05:13:50.265Z,35.38
2018-03-26T05:16:16.910Z,37.65
2018-03-26T05:18:43.552Z,39.20
2018-03-26T05:21:10.294Z,42.92
2018-03-26T05:23:36.933Z,38.13
2018-03-26T05:26:03.661Z,40.72
2018-03-26T05:28:30.333Z,39.58
2018-03-26T05:30:56.971Z,43.42
2018-03-26T05:33:23.683Z,40.00
2018-03-26T05:35:50.346Z,39.20
2018-03-26T05:38:17.072Z,32.08
2018-03-26T05:40:43.722Z,39.65
2018-03-26T05:43:10.353Z,37.50
2018-03-26T05:45:37.017Z,37.75
2018-03-26T05:48:03.653Z,41.47
2018-03-26T05:50:30.360Z,48.87
2018-03-26T05:52:57.009Z,41.95
2018-03-26T05:55:23.671Z,46.88
2018-03-26T05:57:50.388Z,41.55
2018-03-26T06:00:17.135Z,44.15
2018-03-26T06:02:43.765Z,40.25
2018-03-26T06:05:10.408Z,44.25
2018-03-26T06:07:37.038Z,37.13
2018-03-26T06:10:03.684Z,40.72
2018-03-26T06:12:30.308Z,49.20
2018-03-26T06:14:57.065Z,46.28
2018-03-26T06:17:23.684Z,52.55
2018-03-26T06:19:50.324Z,47.65
2018-03-26T06:22:16.948Z,38.85
2018-03-26T06:24:43.585Z,58.38
2018-03-26T06:27:10.224Z,52.00
2018-03-26T06:29:36.856Z,63.42
2018-03-26T06:32:03.501Z,52.80
2018-03-26T06:34:30.132Z,48.13
2018-03-26T06:37:12.384Z,48.40
2018-03-26T06:39:39.014Z,51.35
2018-03-26T06:42:05.760Z,53.38
2018-03-26T06:44:32.396Z,47.10
2018-03-26T06:46:59.056Z,50.22
2018-03-26T06:49:25.703Z,54.38
2018-03-26T06:51:52.344Z,76.00
2018-03-26T06:54:19.056Z,54.78
2018-03-26T06:56:45.721Z,49.28
2018-03-26T06:59:12.358Z,48.47
2018-03-26T07:01:39.002Z,49.10
2018-03-26T07:04:05.744Z,51.70
2018-03-26T07:06:32.393Z,46.53
2018-03-26T07:08:59.101Z,54.08
2018-03-26T07:11:25.836Z,52.47
2018-03-26T07:13:52.460Z,58.35
2018-03-26T07:16:19.144Z,53.80
2018-03-26T07:18:45.856Z,57.05
2018-03-26T07:21:12.523Z,50.45
2018-03-26T07:23:39.162Z,51.70
2018-03-26T07:26:05.873Z,54.78
2018-03-26T07:28:32.514Z,46.58
2018-03-26T07:30:59.261Z,58.92
2018-03-26T07:33:26.029Z,52.78
2018-03-26T07:35:52.728Z,65.50
2018-03-26T07:38:19.368Z,64.95
2018-03-26T07:40:46.001Z,54.15
2018-03-26T07:43:12.658Z,54.58
2018-03-26T07:45:39.325Z,62.42
2018-03-26T07:48:06.036Z,54.40
2018-03-26T07:50:32.666Z,62.47
2018-03-26T07:52:59.447Z,60.25
2018-03-26T07:55:26.068Z,62.65
2018-03-26T07:57:52.804Z,61.45
2018-03-26T08:00:19.439Z,61.60
2018-03-26T08:02:46.081Z,62.25
2018-03-26T08:05:13.410Z,57.72
2018-03-26T08:07:40.049Z,59.95
2018-03-26T08:10:06.684Z,54.95
2018-03-26T08:12:33.352Z,57.42
2018-03-26T08:15:00.006Z,64.10
2018-03-26T08:17:26.737Z,59.38
2018-03-26T08:19:53.604Z,56.88
2018-03-26T08:22:20.228Z,58.22
2018-03-26T08:24:46.871Z,58.45
2018-03-26T08:27:13.491Z,56.65
2018-03-26T08:29:40.237Z,63.38
2018-03-26T08:32:06.982Z,66.93
2018-03-26T08:34:33.728Z,64.37
2018-03-26T08:37:00.357Z,58.47
2018-03-26T08:39:27.108Z,58.13
2018-03-26T08:41:53.732Z,60.38
2018-03-26T08:44:20.363Z,62.05
2018-03-26T08:46:47.019Z,70.18
2018-03-26T08:49:13.671Z,64.60
2018-03-26T08:51:40.293Z,62.22
2018-03-26T08:54:06.937Z,58.83
2018-03-26T08:56:33.681Z,66.07
2018-03-26T08:59:00.412Z,58.25
2018-03-26T09:01:27.059Z,82.40
2018-03-26T09:03:53.799Z,75.68
2018-03-26T09:06:20.445Z,62.88
2018-03-26T09:08:47.185Z,67.55
2018-03-26T09:11:13.824Z,60.33
2018-03-26T09:13:40.462Z,66.05
2018-03-26T09:16:07.101Z,64.12
2018-03-26T09:18:33.838Z,71.30
2018-03-26T09:21:00.572Z,58.45
2018-03-26T09:23:27.197Z,62.88
2018-03-26T09:25:53.890Z,67.07
2018-03-26T09:28:20.504Z,61.42
2018-03-26T09:30:47.142Z,57.85
2018-03-26T09:33:13.777Z,57.25
2018-03-26T09:35:40.417Z,63.47
2018-03-26T09:38:07.152Z,66.80
2018-03-26T09:40:33.815Z,60.55
2018-03-26T09:43:00.538Z,57.78
2018-03-26T09:45:27.284Z,60.50
2018-03-26T09:47:53.942Z,63.22
2018-03-26T09:50:21.388Z,62.38
2018-03-26T09:52:48.037Z,56.55
2018-03-26T09:55:14.780Z,56.60
2018-03-26T09:57:41.501Z,57.40
2018-03-26T10:00:08.134Z,53.58
2018-03-26T10:02:34.781Z,53.75
2018-03-26T10:05:01.507Z,63.58
2018-03-26T10:07:28.149Z,56.33
2018-03-26T10:09:54.796Z,57.13
2018-03-26T10:12:21.441Z,51.83
2018-03-26T10:14:48.069Z,48.63
2018-03-26T10:17:14.812Z,49.28
2018-03-26T10:19:41.488Z,48.83
2018-03-26T10:22:08.217Z,50.45
2018-03-26T10:24:34.854Z,49.45
2018-03-26T10:27:01.577Z,45.20
2018-03-26T10:29:28.238Z,52.20
2018-03-26T10:31:54.870Z,50.58
2018-03-26T10:34:21.533Z,47.33
2018-03-26T10:36:48.241Z,50.53
2018-03-26T10:39:14.878Z,45.55
2018-03-26T10:41:41.513Z,39.63
2018-03-26T10:44:08.161Z,36.28
2018-03-26T10:46:34.789Z,41.88
2018-03-26T10:49:01.445Z,40.53
2018-03-26T10:51:28.092Z,40.63
2018-03-26T10:53:54.804Z,40.08
2018-03-26T10:56:21.448Z,48.03
2018-03-26T10:58:48.113Z,45.95
2018-03-26T11:01:14.853Z,44.22
2018-03-26T11:03:41.499Z,42.58
2018-03-26T11:06:08.140Z,39.25
2018-03-26T11:08:34.798Z,38.85
2018-03-26T11:11:01.430Z,37.63
2018-03-26T11:13:28.125Z,38.95
2018-03-26T11:15:54.744Z,33.15
2018-03-26T11:18:21.388Z,38.40
2018-03-26T11:20:48.016Z,35.85
2018-03-26T11:23:14.690Z,37.80
2018-03-26T11:25:41.344Z,35.33
2018-03-26T11:28:08.088Z,34.70
2018-03-26T11:30:34.811Z,33.70
2018-03-26T11:33:01.459Z,36.15
2018-03-26T11:35:28.105Z,35.92
2018-03-26T11:37:54.858Z,33.00
2018-03-26T11:40:21.796Z,27.67
2018-03-26T11:42:48.639Z,26.02
2018-03-26T11:45:15.395Z,31.70
2018-03-26T11:47:42.032Z,36.35
2018-03-26T11:50:09.171Z,35.90
2018-03-26T11:52:35.920Z,29.15
2018-03-26T11:55:02.614Z,34.70
2018-03-26T11:57:31.032Z,34.38
2018-03-26T11:59:58.010Z,35.28
2018-03-26T12:02:26.154Z,36.70
2018-03-26T12:04:53.013Z,41.60
2018-03-26T12:07:19.712Z,38.13
2018-03-26T12:09:46.369Z,41.78
2018-03-26T12:12:12.996Z,38.85
2018-03-26T12:14:39.759Z,37.60
2018-03-26T12:17:06.467Z,35.90
2018-03-26T12:19:33.106Z,35.10
2018-03-26T12:21:59.856Z,34.47
2018-03-26T12:24:32.461Z,40.15
2018-03-26T12:26:59.109Z,38.10
2018-03-26T12:29:31.800Z,36.28
2018-03-26T12:31:58.445Z,38.28
2018-03-26T12:34:31.077Z,35.47
2018-03-26T12:36:57.821Z,33.00
2018-03-26T12:39:24.460Z,39.97
2018-03-26T12:41:51.198Z,31.65
2018-03-26T12:44:23.865Z,33.40
2018-03-26T12:46:50.540Z,32.63
2018-03-26T12:49:17.248Z,33.45
2018-03-26T12:51:49.828Z,31.77
2018-03-26T12:54:16.461Z,33.83
2018-03-26T12:56:43.092Z,31.20
2018-03-26T12:59:09.740Z,31.77
2018-03-26T13:01:42.228Z,31.98
2018-03-26T13:04:08.969Z,36.25
2018-03-26T13:06:35.709Z,30.23
2018-03-26T13:09:02.356Z,32.30
2018-03-26T13:11:28.988Z,33.22
2018-03-26T13:13:55.629Z,26.92
2018-03-26T13:16:22.257Z,28.98
2018-03-26T13:18:48.902Z,31.05
2018-03-26T13:21:15.537Z,27.80
2018-03-26T13:23:42.172Z,29.17
2018-03-26T13:26:08.837Z,30.12
2018-03-26T13:28:35.564Z,37.83
2018-03-26T13:31:02.194Z,32.85
2018-03-26T13:33:28.940Z,28.90
2018-03-26T13:35:55.599Z,30.67
2018-03-26T13:38:22.324Z,29.83
2018-03-26T13:40:49.078Z,31.30
2018-03-26T13:43:15.707Z,31.33
2018-03-26T13:45:42.357Z,28.23
2018-03-26T13:48:08.997Z,31.12
2018-03-26T13:50:35.700Z,32.33
2018-03-26T13:53:02.336Z,35.10
2018-03-26T13:55:28.984Z,31.55
2018-03-26T13:57:55.620Z,36.45
2018-03-26T14:00:22.305Z,33.25
2018-03-26T14:02:48.940Z,33.28
2018-03-26T14:05:15.582Z,36.33
2018-03-26T14:07:42.299Z,36.10
2018-03-26T14:10:14.990Z,39.35
2018-03-26T14:12:47.560Z,40.92
2018-03-26T14:15:20.157Z,38.88
2018-03-26T14:17:49.293Z,35.47
2018-03-26T14:20:15.953Z,33.13
2018-03-26T14:22:42.585Z,35.83
2018-03-26T14:25:09.222Z,42.50
2018-03-26T14:27:35.878Z,39.90
2018-03-26T14:30:02.516Z,42.55
2018-03-26T14:32:29.174Z,39.75
2018-03-26T14:35:01.776Z,45.45
2018-03-26T14:37:28.501Z,40.92
2018-03-26T14:39:55.127Z,45.03
2018-03-26T14:42:21.862Z,47.80
2018-03-26T14:44:48.490Z,45.40
2018-03-26T14:47:15.124Z,47.15
2018-03-26T14:49:41.762Z,65.35
2018-03-26T14:52:08.433Z,43.10
2018-03-26T14:54:35.178Z,42.60
2018-03-26T14:57:01.817Z,52.10
2018-03-26T14:59:28.446Z,45.03
2018-03-26T15:01:55.075Z,45.95
2018-03-26T15:04:21.709Z,42.05
2018-03-26T15:06:48.349Z,44.38
2018-03-26T15:09:14.991Z,44.83
2018-03-26T15:11:41.736Z,45.53
2018-03-26T15:14:08.518Z,44.33
2018-03-26T15:16:35.145Z,41.03
2018-03-26T15:19:01.790Z,40.97
2018-03-26T15:21:28.416Z,35.63
2018-03-26T15:23:55.061Z,32.13
2018-03-26T15:26:21.694Z,33.05
2018-03-26T15:28:48.342Z,37.88
2018-03-26T15:31:14.970Z,38.45
2018-03-26T15:33:41.710Z,36.58
2018-03-26T15:36:08.337Z,35.00
2018-03-26T15:38:34.972Z,43.13
2018-03-26T15:41:01.602Z,35.22
2018-03-26T15:43:28.365Z,42.65
2018-03-26T15:45:55.022Z,47.55
2018-03-26T15:48:21.706Z,42.28
2018-03-26T15:50:48.377Z,42.85
2018-03-26T15:53:15.121Z,33.95
2018-03-26T15:55:41.870Z,37.42
2018-03-26T15:58:08.517Z,39.35
2018-03-26T16:00:35.145Z,36.30
2018-03-26T16:03:07.660Z,38.15
2018-03-26T16:05:34.360Z,39.53
2018-03-26T16:08:01.099Z,36.70
2018-03-26T16:10:27.745Z,39.95
2018-03-26T16:12:54.377Z,46.55
2018-03-26T16:15:21.016Z,34.28
2018-03-26T16:17:47.649Z,44.58
2018-03-26T16:20:14.288Z,40.67
2018-03-26T16:22:40.921Z,41.45
2018-03-26T16:25:07.561Z,43.28
2018-03-26T16:27:34.211Z,42.13
2018-03-26T16:30:00.849Z,40.00
2018-03-26T16:32:27.485Z,45.05
2018-03-26T16:34:54.235Z,38.70
2018-03-26T16:37:20.974Z,43.97
2018-03-26T16:39:47.610Z,41.17
2018-03-26T16:42:27.286Z,41.78
2018-03-26T16:44:53.997Z,37.10
2018-03-26T16:47:20.627Z,44.97
2018-03-26T16:49:47.256Z,38.22
2018-03-26T16:52:13.925Z,40.72
2018-03-26T16:54:40.548Z,41.35
2018-03-26T16:57:07.196Z,38.88
2018-03-26T16:59:33.815Z,46.97
2018-03-26T17:02:00.461Z,37.72
2018-03-26T17:04:27.092Z,37.05
2018-03-26T17:06:53.728Z,37.72
2018-03-26T17:09:20.361Z,42.92
2018-03-26T17:11:47.022Z,40.17
2018-03-26T17:14:13.661Z,42.80
2018-03-26T17:16:40.312Z,41.40
2018-03-26T17:19:07.040Z,41.15
2018-03-26T17:21:33.694Z,42.95
2018-03-26T17:24:00.319Z,44.38
2018-03-26T17:26:27.028Z,42.42
2018-03-26T17:28:53.706Z,43.92
2018-03-26T17:31:20.353Z,44.05
2018-03-26T17:33:47.009Z,40.60
2018-03-26T17:36:13.641Z,48.95
2018-03-26T17:38:40.376Z,42.97
2018-03-26T17:41:07.006Z,44.15
2018-03-26T17:43:33.747Z,47.03
2018-03-26T17:46:00.389Z,45.55
2018-03-26T17:48:27.055Z,42.13
2018-03-26T17:50:53.773Z,44.47
2018-03-26T17:53:20.427Z,44.17
2018-03-26T17:55:47.061Z,51.05
2018-03-26T17:58:13.700Z,47.60
2018-03-26T18:00:40.324Z,43.40
2018-03-26T18:03:06.963Z,47.67
2018-03-26T18:05:33.591Z,42.60
2018-03-26T18:08:00.337Z,47.10
2018-03-26T18:10:26.974Z,46.67
2018-03-26T18:12:53.607Z,48.38
2018-03-26T18:15:20.241Z,44.33
2018-03-26T18:17:46.889Z,41.33
2018-03-26T18:20:13.521Z,49.70
2018-03-26T18:22:40.168Z,48.80
2018-03-26T18:25:06.792Z,46.95
2018-03-26T18:27:33.451Z,44.50
2018-03-26T18:30:00.205Z,45.45
2018-03-26T18:32:26.933Z,45.10
2018-03-26T18:34:53.564Z,48.05
2018-03-26T18:37:20.204Z,47.10
2018-03-26T18:39:46.845Z,49.28
2018-03-26T18:42:13.472Z,48.67
2018-03-26T18:44:40.132Z,46.83
2018-03-26T18:47:06.872Z,44.75
2018-03-26T18:49:33.514Z,49.75
2018-03-26T18:52:00.149Z,46.00
2018-03-26T18:54:26.893Z,46.88
2018-03-26T18:56:53.560Z,50.97
2018-03-26T18:59:20.180Z,47.13
2018-03-26T19:01:46.809Z,51.83
2018-03-26T19:04:13.552Z,50.10
2018-03-26T19:06:40.284Z,51.45
2018-03-26T19:09:07.030Z,57.22
2018-03-26T19:11:33.664Z,58.90
2018-03-26T19:14:00.320Z,55.53
2018-03-26T19:16:26.959Z,51.25
2018-03-26T19:18:54.069Z,56.70
2018-03-26T19:21:20.714Z,54.67
2018-03-26T19:23:47.337Z,56.05
2018-03-26T19:26:13.972Z,58.72
2018-03-26T19:28:40.607Z,57.13
2018-03-26T19:31:07.292Z,64.43
2018-03-26T19:33:33.924Z,59.60
2018-03-26T19:36:00.564Z,72.70
2018-03-26T19:38:27.188Z,57.80
2018-03-26T19:40:53.830Z,64.90
2018-03-26T19:43:20.457Z,51.10
2018-03-26T19:45:47.129Z,55.08
2018-03-26T19:48:13.761Z,54.03
2018-03-26T19:50:40.514Z,61.37
2018-03-26T19:53:07.252Z,55.25
2018-03-26T19:55:33.888Z,59.28
2018-03-26T19:58:00.534Z,50.55
2018-03-26T20:00:27.172Z,49.78
2018-03-26T20:02:53.805Z,49.20
2018-03-26T20:05:20.441Z,46.63
2018-03-26T20:07:47.187Z,46.17
2018-03-26T20:10:13.821Z,44.08
2018-03-26T20:12:40.471Z,41.83
2018-03-26T20:15:07.105Z,39.88
2018-03-26T20:17:33.744Z,37.30
2018-03-26T20:20:00.368Z,41.45
2018-03-26T20:22:27.007Z,45.53
2018-03-26T20:24:53.673Z,45.25
2018-03-26T20:27:20.331Z,35.85
2018-03-26T20:29:47.035Z,40.95
2018-03-26T20:32:13.673Z,41.92
2018-03-26T20:34:40.313Z,48.70
2018-03-26T20:37:06.947Z,45.08
2018-03-26T20:39:33.576Z,45.63
2018-03-26T20:42:00.247Z,42.35
2018-03-26T20:44:26.877Z,47.88
2018-03-26T20:46:53.549Z,44.92
2018-03-26T20:49:20.185Z,44.30
2018-03-26T20:51:46.821Z,47.75
2018-03-26T20:54:13.536Z,51.00
2018-03-26T20:56:40.168Z,43.72
2018-03-26T20:59:06.804Z,40.80
2018-03-26T21:01:33.478Z,41.70
2018-03-26T21:04:00.206Z,42.38
2018-03-26T21:06:26.828Z,42.00
2018-03-26T21:08:53.473Z,39.40
2018-03-26T21:11:20.108Z,43.05
2018-03-26T21:13:46.753Z,44.90
2018-03-26T21:16:13.491Z,44.55
2018-03-26T21:18:40.241Z,39.92
2018-03-26T21:21:06.877Z,39.10
2018-03-26T21:23:33.608Z,42.25
2018-03-26T21:26:00.231Z,37.05
2018-03-26T21:28:26.893Z,42.03
2018-03-26T21:30:53.524Z,47.83
2018-03-26T21:33:20.160Z,54.53
2018-03-26T21:35:46.809Z,59.58
2018-03-26T21:38:13.463Z,99.50
2018-03-26T21:40:40.188Z,66.00
2018-03-26T21:43:06.827Z,74.78
2018-03-26T21:45:33.568Z,63.17
2018-03-26T21:48:00.200Z,52.30
2018-03-26T21:50:26.844Z,58.45
2018-03-26T21:52:53.476Z,44.72
2018-03-26T21:55:20.239Z,43.95
2018-03-26T21:57:46.873Z,44.25
2018-03-26T22:00:17.314Z,45.15
2018-03-26T22:02:44.036Z,67.93
2018-03-26T22:05:10.677Z,53.38
2018-03-26T22:07:37.420Z,59.42
2018-03-26T22:10:04.160Z,42.67
2018-03-26T22:12:30.906Z,45.75
2018-03-26T22:14:57.554Z,43.50
2018-03-26T22:17:24.189Z,46.40
2018-03-26T22:19:50.833Z,45.30
2018-03-26T22:22:17.475Z,42.22
2018-03-26T22:24:44.202Z,47.00
2018-03-26T22:27:10.829Z,46.50
2018-03-26T22:29:37.477Z,44.05
2018-03-26T22:32:04.109Z,50.55
2018-03-26T22:34:30.766Z,56.60
2018-03-26T22:36:57.504Z,45.78
2018-03-26T22:39:24.141Z,45.47
2018-03-26T22:41:50.781Z,45.42
2018-03-26T22:44:17.521Z,44.00
2018-03-26T22:46:44.160Z,44.15
2018-03-26T22:49:10.785Z,44.65
2018-03-26T22:51:37.538Z,40.33
2018-03-26T22:54:04.178Z,46.13
2018-03-26T22:56:30.925Z,49.65
2018-03-26T22:58:57.557Z,49.17
2018-03-26T23:01:24.199Z,50.17
2018-03-26T23:03:50.824Z,52.53
2018-03-26T23:06:17.465Z,48.47
2018-03-26T23:08:44.092Z,50.03
2018-03-26T23:11:10.748Z,50.12
2018-03-26T23:13:37.373Z,52.83
2018-03-26T23:16:04.017Z,51.78
2018-03-26T23:18:30.647Z,55.22
2018-03-26T23:20:57.301Z,48.90
2018-03-26T23:23:23.940Z,50.20
2018-03-26T23:25:50.564Z,51.25
2018-03-26T23:28:17.206Z,50.97
2018-03-26T23:30:43.854Z,49.78
2018-03-26T23:33:10.585Z,49.42
2018-03-26T23:35:37.211Z,46.90
2018-03-26T23:38:03.857Z,52.95
2018-03-26T23:40:30.493Z,49.92
2018-03-26T23:42:57.160Z,47.70
2018-03-26T23:45:23.797Z,49.88
2018-03-26T23:47:50.441Z,50.88
2018-03-26T23:50:17.184Z,51.03
2018-03-26T23:52:43.921Z,50.22
2018-03-26T23:55:10.557Z,46.78
2018-03-26T23:57:37.206Z,48.90
